Terminal Aerodrome Forecast
Issued by NWS Hastings, NE

Home | Current Version | Previous Version | Text Only | Print | Product List | Glossary On
Versions: 1 2 3 4 5 6 7 8 9 10 11 12 13 14 15 16 17 18 19 20 21 22 23 24
000
FTUS45 KGID 041120
TAFEAR
TAF
KEAR 041120Z 0412/0512 VRB06KT P6SM SCT250
      TEMPO 0412/0414 4SM BR
     FM041600 17011KT P6SM SCT250
     FM050100 15009KT P6SM SCT060 SCT250
      AMD LTD TO CLD VIS AND WIND=

USA.gov is the U.S. government's official web portal to all federal, state and local government web resources and services.